createdAt,value
2023-03-27T00:00:35.592Z,985.92
2023-03-27T00:01:35.511Z,985.91
2023-03-27T00:02:35.680Z,985.87
2023-03-27T00:03:35.520Z,985.98
2023-03-27T00:04:35.408Z,985.93
2023-03-27T00:05:35.367Z,986.01
2023-03-27T00:06:35.359Z,985.99
2023-03-27T00:07:35.316Z,986.00
2023-03-27T00:08:35.296Z,986.02
2023-03-27T00:09:35.355Z,986.09
2023-03-27T00:10:35.262Z,986.12
2023-03-27T00:11:35.212Z,986.11
2023-03-27T00:12:35.190Z,986.11
2023-03-27T00:13:35.176Z,986.16
2023-03-27T00:14:35.149Z,986.14
2023-03-27T00:15:35.117Z,986.22
2023-03-27T00:16:35.108Z,986.24
2023-03-27T00:17:35.107Z,986.23
2023-03-27T00:18:35.052Z,986.25
2023-03-27T00:19:35.037Z,986.30
2023-03-27T00:20:35.035Z,986.28
2023-03-27T00:21:34.959Z,986.32
2023-03-27T00:22:34.936Z,986.35
2023-03-27T00:23:34.947Z,986.36
2023-03-27T00:24:34.886Z,986.43
2023-03-27T00:25:34.873Z,986.39
2023-03-27T00:26:34.838Z,986.44
2023-03-27T00:27:34.833Z,986.42
2023-03-27T00:28:34.781Z,986.48
2023-03-27T00:29:34.753Z,986.48
2023-03-27T00:30:34.746Z,986.58
2023-03-27T00:31:34.702Z,986.58
2023-03-27T00:32:34.704Z,986.66
2023-03-27T00:33:34.690Z,986.65
2023-03-27T00:34:34.634Z,986.70
2023-03-27T00:35:34.633Z,986.71
2023-03-27T00:36:34.582Z,986.74
2023-03-27T00:37:34.557Z,986.77
2023-03-27T00:38:34.534Z,986.81
2023-03-27T00:39:34.509Z,986.84
2023-03-27T00:40:34.498Z,986.90
2023-03-27T00:41:34.452Z,986.74
2023-03-27T00:42:34.429Z,986.92
2023-03-27T00:43:34.446Z,986.84
2023-03-27T00:44:34.376Z,986.87
2023-03-27T00:45:34.347Z,986.79
2023-03-27T00:46:34.371Z,986.94
2023-03-27T00:47:34.308Z,986.97
2023-03-27T00:48:34.278Z,987.01
2023-03-27T00:49:34.300Z,987.03
2023-03-27T00:50:34.220Z,987.01
2023-03-27T00:51:34.200Z,987.03
2023-03-27T00:52:34.171Z,987.03
2023-03-27T00:53:34.185Z,987.04
2023-03-27T00:54:34.122Z,987.05
2023-03-27T00:55:34.117Z,987.06
2023-03-27T00:56:34.150Z,987.04
2023-03-27T00:57:34.053Z,987.12
2023-03-27T00:58:34.020Z,987.06
2023-03-27T00:59:33.990Z,987.04
2023-03-27T01:00:33.965Z,987.07
2023-03-27T01:01:33.999Z,987.08
2023-03-27T01:02:34.020Z,987.07
2023-03-27T01:03:34.063Z,987.10
2023-03-27T01:04:33.861Z,987.08
2023-03-27T01:05:33.837Z,987.16
2023-03-27T01:06:33.841Z,987.14
2023-03-27T01:07:33.779Z,987.18
2023-03-27T01:08:33.794Z,987.17
2023-03-27T01:09:33.754Z,987.18
2023-03-27T01:10:33.708Z,987.19
2023-03-27T01:11:33.683Z,987.23
2023-03-27T01:12:33.655Z,987.24
2023-03-27T01:13:33.632Z,987.27
2023-03-27T01:14:33.620Z,987.29
2023-03-27T01:15:33.597Z,987.30
2023-03-27T01:16:33.554Z,987.29
2023-03-27T01:17:33.562Z,987.32
2023-03-27T01:18:33.510Z,987.32
2023-03-27T01:19:33.468Z,987.38
2023-03-27T01:20:33.515Z,987.37
2023-03-27T01:21:33.423Z,987.40
2023-03-27T01:22:33.411Z,987.36
2023-03-27T01:23:36.307Z,987.40
2023-03-27T01:24:33.363Z,987.47
2023-03-27T01:25:33.326Z,987.42
2023-03-27T01:26:35.619Z,987.47
2023-03-27T01:27:33.278Z,987.51
2023-03-27T01:28:33.241Z,987.48
2023-03-27T01:29:33.224Z,987.54
2023-03-27T01:30:33.226Z,987.54
2023-03-27T01:31:33.213Z,987.63
2023-03-27T01:32:33.224Z,987.60
2023-03-27T01:33:33.107Z,987.63
2023-03-27T01:34:33.085Z,987.68
2023-03-27T01:35:33.130Z,987.74
2023-03-27T01:36:33.036Z,987.70
2023-03-27T01:37:33.026Z,987.79
2023-03-27T01:38:32.982Z,987.73
2023-03-27T01:39:32.960Z,987.76
2023-03-27T01:40:32.930Z,987.83
2023-03-27T01:41:32.910Z,987.84
2023-03-27T01:42:32.901Z,987.81
2023-03-27T01:43:32.857Z,987.85
2023-03-27T01:44:43.369Z,987.90
2023-03-27T01:45:32.805Z,987.86
2023-03-27T01:46:32.802Z,987.88
2023-03-27T01:47:32.883Z,987.91
2023-03-27T01:48:32.741Z,987.96
2023-03-27T01:49:32.707Z,987.96
2023-03-27T01:50:32.672Z,987.94
2023-03-27T01:51:32.664Z,987.99
2023-03-27T01:52:32.632Z,987.95
2023-03-27T01:53:32.669Z,988.04
2023-03-27T01:54:32.580Z,988.07
2023-03-27T01:55:32.547Z,988.08
2023-03-27T01:56:32.757Z,988.15
2023-03-27T01:57:32.496Z,988.19
2023-03-27T01:58:32.470Z,988.25
2023-03-27T01:59:32.440Z,988.28
2023-03-27T02:01:03.863Z,988.28
2023-03-27T02:01:32.451Z,988.33
2023-03-27T02:02:32.498Z,988.26
2023-03-27T02:03:32.336Z,988.30
2023-03-27T02:04:32.340Z,988.39
2023-03-27T02:05:32.286Z,988.43
2023-03-27T02:06:32.261Z,988.44
2023-03-27T02:07:32.229Z,988.47
2023-03-27T02:08:32.230Z,988.54
2023-03-27T02:09:32.191Z,988.53
2023-03-27T02:10:32.159Z,988.51
2023-03-27T02:11:32.144Z,988.63
2023-03-27T02:12:32.119Z,988.62
2023-03-27T02:13:32.078Z,988.62
2023-03-27T02:14:32.055Z,988.67
2023-03-27T02:15:32.028Z,988.63
2023-03-27T02:16:32.027Z,988.65
2023-03-27T02:17:32.050Z,988.66
2023-03-27T02:18:31.978Z,988.61
2023-03-27T02:19:31.920Z,988.63
2023-03-27T02:20:31.902Z,988.65
2023-03-27T02:21:31.881Z,988.67
2023-03-27T02:22:38.334Z,988.62
2023-03-27T02:23:31.820Z,988.70
2023-03-27T02:24:31.816Z,988.69
2023-03-27T02:25:31.767Z,988.70
2023-03-27T02:26:31.750Z,988.64
2023-03-27T02:27:31.740Z,988.71
2023-03-27T02:28:31.700Z,988.71
2023-03-27T02:29:31.671Z,988.70
2023-03-27T02:30:31.642Z,988.70
2023-03-27T02:31:34.586Z,988.75
2023-03-27T02:32:31.735Z,988.71
2023-03-27T02:33:31.567Z,988.77
2023-03-27T02:34:31.550Z,988.79
2023-03-27T02:35:31.541Z,988.87
2023-03-27T02:36:31.496Z,988.89
2023-03-27T02:37:33.043Z,988.93
2023-03-27T02:38:31.439Z,988.99
2023-03-27T02:39:31.411Z,988.99
2023-03-27T02:40:31.384Z,988.97
2023-03-27T02:41:31.359Z,988.98
2023-03-27T02:42:31.337Z,989.00
2023-03-27T02:43:31.319Z,989.01
2023-03-27T02:44:31.300Z,989.05
2023-03-27T02:45:31.277Z,989.05
2023-03-27T02:46:31.238Z,989.10
2023-03-27T02:47:31.236Z,989.14
2023-03-27T02:48:31.180Z,989.19
2023-03-27T02:49:31.146Z,989.17
2023-03-27T02:50:31.125Z,989.22
2023-03-27T02:51:31.098Z,989.20
2023-03-27T02:52:31.081Z,989.20
2023-03-27T02:53:31.048Z,989.28
2023-03-27T02:54:31.048Z,989.32
2023-03-27T02:55:30.998Z,989.39
2023-03-27T02:56:30.968Z,989.40
2023-03-27T02:57:30.947Z,989.46
2023-03-27T02:58:30.940Z,989.46
2023-03-27T02:59:30.903Z,989.47
2023-03-27T03:00:30.902Z,989.42
2023-03-27T03:01:30.903Z,989.49
2023-03-27T03:02:31.122Z,989.50
2023-03-27T03:03:30.813Z,989.50
2023-03-27T03:04:30.768Z,989.58
2023-03-27T03:05:30.745Z,989.60
2023-03-27T03:06:30.724Z,989.66
2023-03-27T03:07:30.706Z,989.71
2023-03-27T03:08:30.806Z,989.67
2023-03-27T03:09:30.634Z,989.72
2023-03-27T03:10:30.599Z,989.69
2023-03-27T03:11:30.597Z,989.72
2023-03-27T03:12:30.551Z,989.71
2023-03-27T03:13:30.541Z,989.74
2023-03-27T03:14:30.500Z,989.80
2023-03-27T03:15:30.478Z,989.83
2023-03-27T03:16:30.494Z,989.82
2023-03-27T03:17:30.433Z,989.88
2023-03-27T03:18:30.398Z,989.89
2023-03-27T03:19:30.373Z,989.93
2023-03-27T03:20:30.349Z,989.96
2023-03-27T03:21:30.329Z,989.96
2023-03-27T03:22:30.295Z,989.97
2023-03-27T03:23:30.265Z,989.99
2023-03-27T03:24:30.247Z,990.03
2023-03-27T03:25:30.221Z,990.05
2023-03-27T03:26:30.193Z,990.09
2023-03-27T03:27:30.172Z,990.11
2023-03-27T03:28:30.136Z,990.10
2023-03-27T03:29:30.151Z,990.12
2023-03-27T03:30:30.125Z,990.18
2023-03-27T03:31:30.115Z,990.18
2023-03-27T03:32:30.056Z,990.22
2023-03-27T03:33:30.008Z,990.24
2023-03-27T03:34:29.980Z,990.31
2023-03-27T03:35:30.025Z,990.25
2023-03-27T03:36:29.993Z,990.36
2023-03-27T03:37:29.916Z,990.31
2023-03-27T03:38:29.882Z,990.37
2023-03-27T03:39:29.877Z,990.38
2023-03-27T03:40:29.843Z,990.42
2023-03-27T03:41:29.817Z,990.47
2023-03-27T03:42:29.765Z,990.47
2023-03-27T03:43:29.767Z,990.46
2023-03-27T03:44:29.724Z,990.50
2023-03-27T03:45:29.763Z,990.56
2023-03-27T03:46:29.732Z,990.59
2023-03-27T03:47:29.659Z,990.63
2023-03-27T03:48:29.611Z,990.63
2023-03-27T03:49:29.591Z,990.68
2023-03-27T03:50:29.557Z,990.67
2023-03-27T03:51:29.538Z,990.66
2023-03-27T03:52:29.505Z,990.73
2023-03-27T03:53:29.483Z,990.78
2023-03-27T03:54:29.460Z,990.83
2023-03-27T03:55:29.435Z,990.89
2023-03-27T03:56:29.396Z,990.87
2023-03-27T03:57:29.373Z,990.88
2023-03-27T03:58:34.373Z,990.90
2023-03-27T03:59:29.317Z,990.91
2023-03-27T04:00:29.290Z,990.91
2023-03-27T04:01:29.349Z,990.95
2023-03-27T04:02:29.435Z,990.96
2023-03-27T04:03:29.242Z,990.98
2023-03-27T04:04:29.197Z,991.03
2023-03-27T04:05:29.158Z,991.03
2023-03-27T04:06:29.138Z,991.05
2023-03-27T04:07:29.111Z,991.08
2023-03-27T04:08:29.129Z,991.10
2023-03-27T04:09:29.050Z,991.11
2023-03-27T04:10:29.021Z,991.15
2023-03-27T04:11:29.004Z,991.12
2023-03-27T04:12:28.975Z,991.15
2023-03-27T04:13:28.945Z,991.15
2023-03-27T04:14:28.923Z,991.16
2023-03-27T04:15:28.910Z,991.20
2023-03-27T04:16:28.889Z,991.28
2023-03-27T04:17:28.964Z,991.30
2023-03-27T04:18:28.921Z,991.30
2023-03-27T04:19:28.781Z,991.39
2023-03-27T04:20:28.765Z,991.37
2023-03-27T04:21:28.761Z,991.39
2023-03-27T04:22:28.997Z,991.47
2023-03-27T04:23:28.724Z,991.51
2023-03-27T04:24:28.701Z,991.53
2023-03-27T04:25:28.688Z,991.60
2023-03-27T04:26:28.664Z,991.58
2023-03-27T04:27:28.577Z,991.59
2023-03-27T04:28:28.555Z,991.60
2023-03-27T04:29:28.529Z,991.61
2023-03-27T04:30:28.489Z,991.62
2023-03-27T04:31:28.532Z,991.68
2023-03-27T04:32:28.472Z,991.67
2023-03-27T04:33:30.647Z,991.68
2023-03-27T04:34:28.385Z,991.71
2023-03-27T04:35:28.385Z,991.71
2023-03-27T04:36:29.548Z,991.70
2023-03-27T04:37:28.315Z,991.71
2023-03-27T04:38:28.295Z,991.70
2023-03-27T04:39:28.267Z,991.74
2023-03-27T04:40:28.237Z,991.73
2023-03-27T04:41:28.213Z,991.79
2023-03-27T04:42:28.234Z,991.81
2023-03-27T04:43:28.174Z,991.85
2023-03-27T04:44:28.121Z,991.84
2023-03-27T04:45:28.152Z,991.89
2023-03-27T04:46:28.116Z,991.93
2023-03-27T04:47:28.059Z,991.95
2023-03-27T04:48:28.020Z,991.93
2023-03-27T04:49:28.003Z,991.98
2023-03-27T04:50:27.959Z,992.02
2023-03-27T04:51:27.943Z,992.04
2023-03-27T04:52:27.940Z,992.07
2023-03-27T04:53:27.887Z,992.03
2023-03-27T04:54:27.858Z,992.03
2023-03-27T04:55:27.834Z,992.10
2023-03-27T04:56:27.824Z,992.09
2023-03-27T04:57:27.779Z,992.17
2023-03-27T04:58:27.756Z,992.14
2023-03-27T04:59:27.765Z,992.16
2023-03-27T05:00:27.699Z,992.19
2023-03-27T05:01:27.696Z,992.24
2023-03-27T05:02:27.687Z,992.26
2023-03-27T05:03:27.685Z,992.24
2023-03-27T05:04:27.591Z,992.25
2023-03-27T05:05:27.567Z,992.25
2023-03-27T05:06:27.534Z,992.32
2023-03-27T05:07:27.512Z,992.29
2023-03-27T05:08:27.480Z,992.36
2023-03-27T05:09:27.514Z,992.34
2023-03-27T05:10:27.426Z,992.38
2023-03-27T05:11:27.406Z,992.38
2023-03-27T05:12:27.370Z,992.43
2023-03-27T05:13:27.349Z,992.44
2023-03-27T05:14:27.324Z,992.51
2023-03-27T05:15:27.293Z,992.55
2023-03-27T05:16:27.315Z,992.58
2023-03-27T05:17:27.267Z,992.62
2023-03-27T05:18:27.212Z,992.62
2023-03-27T05:19:27.212Z,992.66
2023-03-27T05:20:27.182Z,992.69
2023-03-27T05:21:27.160Z,992.68
2023-03-27T05:22:27.113Z,992.70
2023-03-27T05:23:27.096Z,992.73
2023-03-27T05:24:27.054Z,992.78
2023-03-27T05:25:27.030Z,992.82
2023-03-27T05:26:27.008Z,992.83
2023-03-27T05:27:26.973Z,992.86
2023-03-27T05:28:26.946Z,992.86
2023-03-27T05:29:26.941Z,992.93
2023-03-27T05:30:27.104Z,992.92
2023-03-27T05:31:26.898Z,992.99
2023-03-27T05:32:26.871Z,993.03
2023-03-27T05:33:26.816Z,993.00
2023-03-27T05:34:26.780Z,993.01
2023-03-27T05:35:26.786Z,993.04
2023-03-27T05:36:26.727Z,993.05
2023-03-27T05:37:27.493Z,993.11
2023-03-27T05:38:26.672Z,993.08
2023-03-27T05:39:26.656Z,993.10
2023-03-27T05:40:26.654Z,993.12
2023-03-27T05:41:26.598Z,993.16
2023-03-27T05:42:26.578Z,993.15
2023-03-27T05:43:26.550Z,993.20
2023-03-27T05:44:26.560Z,993.19
2023-03-27T05:45:26.492Z,993.28
2023-03-27T05:46:26.488Z,993.30
2023-03-27T05:47:26.489Z,993.25
2023-03-27T05:48:26.431Z,993.33
2023-03-27T05:49:26.406Z,993.31
2023-03-27T05:50:26.351Z,993.31
2023-03-27T05:51:26.321Z,993.39
2023-03-27T05:52:28.305Z,993.39
2023-03-27T05:53:28.083Z,993.42
2023-03-27T05:54:26.243Z,993.39
2023-03-27T05:55:27.757Z,993.40
2023-03-27T05:56:26.194Z,993.45
2023-03-27T05:57:26.211Z,993.45
2023-03-27T05:58:26.131Z,993.44
2023-03-27T05:59:26.119Z,993.47
2023-03-27T06:00:26.080Z,993.54
2023-03-27T06:01:26.064Z,993.57
2023-03-27T06:02:26.085Z,993.62
2023-03-27T06:03:26.169Z,993.64
2023-03-27T06:04:26.024Z,993.66
2023-03-27T06:05:25.952Z,993.67
2023-03-27T06:06:25.923Z,993.70
2023-03-27T06:07:25.967Z,993.72
2023-03-27T06:08:25.869Z,993.69
2023-03-27T06:09:25.859Z,993.74
2023-03-27T06:10:25.817Z,993.74
2023-03-27T06:11:25.794Z,993.78
2023-03-27T06:12:25.758Z,993.82
2023-03-27T06:13:25.733Z,993.80
2023-03-27T06:14:25.708Z,993.88
2023-03-27T06:15:25.725Z,993.85
2023-03-27T06:16:25.691Z,993.88
2023-03-27T06:17:25.676Z,993.95
2023-03-27T06:18:25.600Z,993.96
2023-03-27T06:19:25.586Z,994.00
2023-03-27T06:20:25.555Z,994.00
2023-03-27T06:21:25.552Z,994.03
2023-03-27T06:22:25.487Z,994.07
2023-03-27T06:23:25.478Z,994.06
2023-03-27T06:24:25.438Z,994.07
2023-03-27T06:25:25.424Z,994.11
2023-03-27T06:26:25.385Z,994.17
2023-03-27T06:27:25.360Z,994.23
2023-03-27T06:28:25.345Z,994.28
2023-03-27T06:29:25.317Z,994.28
2023-03-27T06:30:25.285Z,994.33
2023-03-27T06:31:25.322Z,994.37
2023-03-27T06:32:27.198Z,994.41
2023-03-27T06:33:25.198Z,994.45
2023-03-27T06:34:25.174Z,994.49
2023-03-27T06:35:25.167Z,994.51
2023-03-27T06:36:25.225Z,994.51
2023-03-27T06:37:25.110Z,994.55
2023-03-27T06:38:25.070Z,994.59
2023-03-27T06:39:25.056Z,994.59
2023-03-27T06:40:25.016Z,994.63
2023-03-27T06:41:25.009Z,994.72
2023-03-27T06:42:24.963Z,994.73
2023-03-27T06:43:24.952Z,994.74
2023-03-27T06:44:25.125Z,994.71
2023-03-27T06:45:24.936Z,994.75
2023-03-27T06:46:29.727Z,994.79
2023-03-27T06:47:25.094Z,994.78
2023-03-27T06:48:24.865Z,994.82
2023-03-27T06:49:24.797Z,994.79
2023-03-27T06:50:24.762Z,994.78
2023-03-27T06:51:24.737Z,994.82
2023-03-27T06:52:24.797Z,994.81
2023-03-27T06:53:28.015Z,994.84
2023-03-27T06:54:24.660Z,994.82
2023-03-27T06:55:24.634Z,994.82
2023-03-27T06:56:24.612Z,994.83
2023-03-27T06:57:24.584Z,994.90
2023-03-27T06:58:24.546Z,994.90
2023-03-27T06:59:24.528Z,994.96
2023-03-27T07:00:24.511Z,994.94
2023-03-27T07:01:24.528Z,994.94
2023-03-27T07:02:24.463Z,994.97
2023-03-27T07:03:24.436Z,994.97
2023-03-27T07:04:24.392Z,994.98
2023-03-27T07:05:24.431Z,994.99
2023-03-27T07:06:24.345Z,995.10
2023-03-27T07:07:24.360Z,995.10
2023-03-27T07:08:25.383Z,995.09
2023-03-27T07:09:24.284Z,995.11
2023-03-27T07:10:24.245Z,995.12
2023-03-27T07:11:24.225Z,995.12
2023-03-27T07:12:24.193Z,995.16
2023-03-27T07:13:24.167Z,995.16
2023-03-27T07:14:24.140Z,995.21
2023-03-27T07:15:24.135Z,995.26
2023-03-27T07:16:24.201Z,995.24
2023-03-27T07:17:25.346Z,995.25
2023-03-27T07:18:24.117Z,995.33
2023-03-27T07:19:24.013Z,995.31
2023-03-27T07:20:23.985Z,995.34
2023-03-27T07:21:23.971Z,995.39
2023-03-27T07:22:23.950Z,995.36
2023-03-27T07:23:23.900Z,995.37
2023-03-27T07:24:23.880Z,995.43
2023-03-27T07:25:23.848Z,995.43
2023-03-27T07:26:23.836Z,995.43
2023-03-27T07:27:23.821Z,995.41
2023-03-27T07:28:23.786Z,995.46
2023-03-27T07:29:23.758Z,995.45
2023-03-27T07:30:23.725Z,995.49
2023-03-27T07:31:35.041Z,995.54
2023-03-27T07:32:36.235Z,995.50
2023-03-27T07:33:23.701Z,995.55
2023-03-27T07:34:23.689Z,995.53
2023-03-27T07:35:23.650Z,995.54
2023-03-27T07:36:23.578Z,995.61
2023-03-27T07:37:23.593Z,995.65
2023-03-27T07:38:23.523Z,995.63
2023-03-27T07:39:23.521Z,995.66
2023-03-27T07:40:37.043Z,995.70
2023-03-27T07:41:23.446Z,995.72
2023-03-27T07:42:23.423Z,995.73
2023-03-27T07:43:23.396Z,995.74
2023-03-27T07:44:23.377Z,995.75
2023-03-27T07:45:23.377Z,995.77
2023-03-27T07:46:23.333Z,995.83
2023-03-27T07:47:23.307Z,995.82
2023-03-27T07:48:23.355Z,995.88
2023-03-27T07:49:38.741Z,995.91
2023-03-27T07:50:23.267Z,995.92
2023-03-27T07:51:23.216Z,995.95
2023-03-27T07:52:23.190Z,995.98
2023-03-27T07:53:32.979Z,996.00
2023-03-27T07:54:23.125Z,996.02
2023-03-27T07:55:23.094Z,996.01
2023-03-27T07:56:23.078Z,996.04
2023-03-27T07:57:23.121Z,996.02
2023-03-27T07:58:23.174Z,996.04
2023-03-27T07:59:22.996Z,996.03
2023-03-27T08:00:23.067Z,996.07
2023-03-27T08:01:22.952Z,996.08
2023-03-27T08:02:22.928Z,996.15
2023-03-27T08:03:22.976Z,996.16
2023-03-27T08:04:22.942Z,996.21
2023-03-27T08:05:22.867Z,996.16
2023-03-27T08:06:22.826Z,996.17
2023-03-27T08:07:22.804Z,996.21
2023-03-27T08:08:22.809Z,996.21
2023-03-27T08:09:22.743Z,996.17
2023-03-27T08:10:22.735Z,996.16
2023-03-27T08:11:30.290Z,996.13
2023-03-27T08:12:22.672Z,996.18
2023-03-27T08:13:22.650Z,996.18
2023-03-27T08:14:22.621Z,996.25
2023-03-27T08:15:22.626Z,996.23
2023-03-27T08:16:22.586Z,996.21
2023-03-27T08:17:22.609Z,996.24
2023-03-27T08:18:22.646Z,996.26
2023-03-27T08:19:22.491Z,996.25
2023-03-27T08:20:22.550Z,996.20
2023-03-27T08:21:22.449Z,996.27
2023-03-27T08:22:22.441Z,996.29
2023-03-27T08:23:22.387Z,996.27
2023-03-27T08:24:22.383Z,996.30
2023-03-27T08:25:22.578Z,996.31
2023-03-27T08:26:22.327Z,996.31
2023-03-27T08:27:22.289Z,996.29
2023-03-27T08:28:22.267Z,996.35
2023-03-27T08:29:22.249Z,996.34
2023-03-27T08:30:22.299Z,996.34
2023-03-27T08:31:22.277Z,996.35
2023-03-27T08:32:22.213Z,996.36
2023-03-27T08:33:22.162Z,996.38
2023-03-27T08:34:22.116Z,996.42
2023-03-27T08:35:22.114Z,996.45
2023-03-27T08:36:22.071Z,996.40
2023-03-27T08:37:22.045Z,996.46
2023-03-27T08:38:27.038Z,996.51
2023-03-27T08:39:21.992Z,996.48
2023-03-27T08:40:21.988Z,996.50
2023-03-27T08:41:21.961Z,996.51
2023-03-27T08:42:21.922Z,996.55
2023-03-27T08:43:21.892Z,996.56
2023-03-27T08:44:21.865Z,996.57
2023-03-27T08:45:21.848Z,996.60
2023-03-27T08:46:21.888Z,996.59
2023-03-27T08:47:21.816Z,996.60
2023-03-27T08:48:22.101Z,996.69
2023-03-27T08:49:21.759Z,996.68
2023-03-27T08:50:21.719Z,996.68
2023-03-27T08:51:21.696Z,996.71
2023-03-27T08:52:21.675Z,996.78
2023-03-27T08:53:21.642Z,996.74
2023-03-27T08:54:21.660Z,996.71
2023-03-27T08:55:21.595Z,996.74
2023-03-27T08:56:21.577Z,996.75
2023-03-27T08:57:21.663Z,996.71
2023-03-27T08:58:21.567Z,996.78
2023-03-27T08:59:21.503Z,996.68
2023-03-27T09:00:21.529Z,996.75
2023-03-27T09:01:21.487Z,996.71
2023-03-27T09:02:21.502Z,996.75
2023-03-27T09:03:21.516Z,996.75
2023-03-27T09:04:21.394Z,996.79
2023-03-27T09:05:21.361Z,996.80
2023-03-27T09:06:21.336Z,996.78
2023-03-27T09:07:21.316Z,996.78
2023-03-27T09:08:21.305Z,996.81
2023-03-27T09:09:21.259Z,996.83
2023-03-27T09:10:21.278Z,996.85
2023-03-27T09:11:21.842Z,996.86
2023-03-27T09:12:21.201Z,996.90
2023-03-27T09:13:21.184Z,996.88
2023-03-27T09:14:21.153Z,996.88
2023-03-27T09:15:21.117Z,996.91
2023-03-27T09:16:21.150Z,996.90
2023-03-27T09:17:21.068Z,996.93
2023-03-27T09:18:21.052Z,996.92
2023-03-27T09:19:21.038Z,996.91
2023-03-27T09:20:21.008Z,996.92
2023-03-27T09:21:21.021Z,996.89
2023-03-27T09:22:20.949Z,996.89
2023-03-27T09:23:21.286Z,996.93
2023-03-27T09:24:20.904Z,996.93
2023-03-27T09:25:20.878Z,996.92
2023-03-27T09:26:20.855Z,996.95
2023-03-27T09:27:20.842Z,996.94
2023-03-27T09:28:20.879Z,996.97
2023-03-27T09:29:20.847Z,996.97
2023-03-27T09:30:20.754Z,997.00
2023-03-27T09:31:20.772Z,996.88
2023-03-27T09:32:20.707Z,996.91
2023-03-27T09:33:20.673Z,996.86
2023-03-27T09:34:20.666Z,996.83
2023-03-27T09:35:20.714Z,996.86
2023-03-27T09:36:20.609Z,996.84
2023-03-27T09:37:20.576Z,996.87
2023-03-27T09:38:20.558Z,996.87
2023-03-27T09:39:20.533Z,996.88
2023-03-27T09:40:20.560Z,996.90
2023-03-27T09:41:20.499Z,996.89
2023-03-27T09:42:20.462Z,996.91
2023-03-27T09:43:23.132Z,996.97
2023-03-27T09:44:20.470Z,996.92
2023-03-27T09:45:20.385Z,996.94
2023-03-27T09:46:20.501Z,996.94
2023-03-27T09:47:20.379Z,996.97
2023-03-27T09:48:20.360Z,996.98
2023-03-27T09:49:20.298Z,996.96
2023-03-27T09:50:20.283Z,997.01
2023-03-27T09:51:20.314Z,996.96
2023-03-27T09:52:20.236Z,996.95
2023-03-27T09:53:20.206Z,996.98
2023-03-27T09:54:20.182Z,997.06
2023-03-27T09:55:20.160Z,997.03
2023-03-27T09:56:20.239Z,997.10
2023-03-27T09:57:20.205Z,997.10
2023-03-27T09:58:20.100Z,997.07
2023-03-27T09:59:20.068Z,997.04
2023-03-27T10:00:20.070Z,997.07
2023-03-27T10:01:20.057Z,997.02
2023-03-27T10:02:19.998Z,997.11
2023-03-27T10:03:20.026Z,997.10
2023-03-27T10:04:19.979Z,997.14
2023-03-27T10:05:19.931Z,997.17
2023-03-27T10:06:19.893Z,997.15
2023-03-27T10:07:19.874Z,997.10
2023-03-27T10:08:19.847Z,997.12
2023-03-27T10:09:19.837Z,997.08
2023-03-27T10:10:19.807Z,997.06
2023-03-27T10:11:19.776Z,997.04
2023-03-27T10:12:19.784Z,997.01
2023-03-27T10:13:19.738Z,997.10
2023-03-27T10:14:19.715Z,997.04
2023-03-27T10:15:19.697Z,997.02
2023-03-27T10:16:19.694Z,997.06
2023-03-27T10:17:19.639Z,997.01
2023-03-27T10:18:19.625Z,997.04
2023-03-27T10:19:19.593Z,997.06
2023-03-27T10:20:19.576Z,997.08
2023-03-27T10:21:19.558Z,997.10
2023-03-27T10:22:19.534Z,997.20
2023-03-27T10:23:19.515Z,997.12
2023-03-27T10:24:19.485Z,997.10
2023-03-27T10:25:19.465Z,997.16
2023-03-27T10:26:19.433Z,997.13
2023-03-27T10:27:19.423Z,997.13
2023-03-27T10:28:19.410Z,997.04
2023-03-27T10:29:19.381Z,997.11
2023-03-27T10:30:19.352Z,997.15
2023-03-27T10:31:19.359Z,997.18
2023-03-27T10:32:19.312Z,997.18
2023-03-27T10:33:19.277Z,997.19
2023-03-27T10:34:19.257Z,997.16
2023-03-27T10:35:19.264Z,997.14
2023-03-27T10:36:19.240Z,997.23
2023-03-27T10:37:19.188Z,997.27
2023-03-27T10:38:19.175Z,997.28
2023-03-27T10:39:19.171Z,997.20
2023-03-27T10:40:19.131Z,997.19
2023-03-27T10:41:28.653Z,997.23
2023-03-27T10:42:19.115Z,997.24
2023-03-27T10:43:19.062Z,997.17
2023-03-27T10:44:19.053Z,997.20
2023-03-27T10:45:19.015Z,997.16
2023-03-27T10:46:19.111Z,997.18
2023-03-27T10:47:18.980Z,997.16
2023-03-27T10:48:18.959Z,997.14
2023-03-27T10:49:18.936Z,997.24
2023-03-27T10:50:18.928Z,997.17
2023-03-27T10:51:18.907Z,997.18
2023-03-27T10:52:18.869Z,997.18
2023-03-27T10:53:18.967Z,997.17
2023-03-27T10:54:18.878Z,997.14
2023-03-27T10:55:18.816Z,997.15
2023-03-27T10:56:18.796Z,997.14
2023-03-27T10:57:18.841Z,997.22
2023-03-27T10:58:18.733Z,997.24
2023-03-27T10:59:25.484Z,997.24
2023-03-27T11:00:18.819Z,997.23
2023-03-27T11:01:18.667Z,997.22
2023-03-27T11:02:18.653Z,997.26
2023-03-27T11:03:18.638Z,997.25
2023-03-27T11:04:18.658Z,997.25
2023-03-27T11:05:18.567Z,997.29
2023-03-27T11:06:18.543Z,997.29
2023-03-27T11:07:18.519Z,997.27
2023-03-27T11:08:18.503Z,997.28
2023-03-27T11:09:18.477Z,997.27
2023-03-27T11:10:18.449Z,997.25
2023-03-27T11:11:18.434Z,997.32
2023-03-27T11:12:18.412Z,997.31
2023-03-27T11:13:18.391Z,997.29
2023-03-27T11:14:18.410Z,997.31
2023-03-27T11:15:18.349Z,997.33
2023-03-27T11:16:18.403Z,997.34
2023-03-27T11:17:18.301Z,997.44
2023-03-27T11:18:18.401Z,997.39
2023-03-27T11:19:18.302Z,997.44
2023-03-27T11:20:18.313Z,997.37
2023-03-27T11:21:18.207Z,997.42
2023-03-27T11:22:18.188Z,997.53
2023-03-27T11:23:18.159Z,997.50
2023-03-27T11:24:18.141Z,997.51
2023-03-27T11:25:18.109Z,997.49
2023-03-27T11:26:18.105Z,997.53
2023-03-27T11:27:18.069Z,997.49
2023-03-27T11:28:18.041Z,997.55
2023-03-27T11:29:18.020Z,997.58
2023-03-27T11:30:17.999Z,997.58
2023-03-27T11:31:18.001Z,997.66
2023-03-27T11:32:17.968Z,997.61
2023-03-27T11:33:17.949Z,997.62
2023-03-27T11:34:28.962Z,997.60
2023-03-27T11:35:17.892Z,997.70
2023-03-27T11:36:17.864Z,997.77
2023-03-27T11:37:17.855Z,997.76
2023-03-27T11:38:17.830Z,997.77
2023-03-27T11:39:17.815Z,997.79
2023-03-27T11:40:17.796Z,997.83
2023-03-27T11:41:17.781Z,997.81
2023-03-27T11:42:17.752Z,997.83
2023-03-27T11:43:17.740Z,997.86
2023-03-27T11:44:17.712Z,997.80
2023-03-27T11:45:17.708Z,997.83
2023-03-27T11:46:17.777Z,997.82
2023-03-27T11:47:17.676Z,997.86
2023-03-27T11:48:17.728Z,997.81
2023-03-27T11:49:17.628Z,997.83
2023-03-27T11:50:17.623Z,997.83
2023-03-27T11:51:17.598Z,997.82
2023-03-27T11:52:17.577Z,997.84
2023-03-27T11:53:17.578Z,997.85
2023-03-27T11:54:17.541Z,997.83
2023-03-27T11:55:17.531Z,997.89
2023-03-27T11:56:17.504Z,997.89
2023-03-27T11:57:17.516Z,997.78
2023-03-27T11:58:17.519Z,997.82
2023-03-27T11:59:17.473Z,997.82
2023-03-27T12:00:17.455Z,997.81
2023-03-27T12:01:17.880Z,997.76
2023-03-27T12:02:17.451Z,997.81
2023-03-27T12:03:17.479Z,997.78
2023-03-27T12:04:17.391Z,997.73
2023-03-27T12:05:17.379Z,997.73
2023-03-27T12:06:17.348Z,997.79
2023-03-27T12:07:26.276Z,997.81
2023-03-27T12:08:17.336Z,997.74
2023-03-27T12:09:17.303Z,997.77
2023-03-27T12:10:17.281Z,997.84
2023-03-27T12:11:17.279Z,997.87
2023-03-27T12:12:17.257Z,997.82
2023-03-27T12:13:17.267Z,997.72
2023-03-27T12:14:18.545Z,997.70
2023-03-27T12:15:17.234Z,997.74
2023-03-27T12:16:17.206Z,997.77
2023-03-27T12:17:17.217Z,997.84
2023-03-27T12:18:17.169Z,997.76
2023-03-27T12:19:27.430Z,997.75
2023-03-27T12:20:17.134Z,997.76
2023-03-27T12:21:17.127Z,997.69
2023-03-27T12:22:23.460Z,997.74
2023-03-27T12:23:17.094Z,997.70
2023-03-27T12:24:17.065Z,997.68
2023-03-27T12:25:17.054Z,997.69
2023-03-27T12:26:17.033Z,997.68
2023-03-27T12:27:17.042Z,997.71
2023-03-27T12:28:22.073Z,997.64